Aérodrome :
LOGIN :

S'inscrire | Disclaimer

   EN    FR    IT 

 










Légende :    VFR   VFR Marginal   IFR   IFR Intensif   IFR Très Intensif
Visi : 
Plafond : 
>= 8 km
>= 3000ft
5 à 8 km
1000 à 3000 ft
1500m à 5 km
500 à 1000 ft
800 à 1500m
200 à 500 ft
< 800m
< 200 ft
Symboles :   Orages  Brouillard  Fortes neiges  Fortes précipitations  Vent > 20 kt
SIGMETs :   Divers  Orages  Givrage  Turbulence  Onde Orograph.  Cendres Volcan.







- Altitude de l'aérodrome : 284 ft


EGUW - RAF Wattisham

DERNIER METAR :
  • 201950Z 29004KT CAVOK 14/06 Q1025 NOSIG RMK BLU BLU

METARs EXPIRÉS :
  • 201920Z 29004KT CAVOK 15/06 Q1025 NOSIG RMK BLU BLU
  • 201850Z 30005KT CAVOK 17/07 Q1024 NOSIG RMK BLU BLU
  • 201820Z 31005KT 9999 FEW045 18/08 Q1024 NOSIG RMK BLU BLU
  • 201750Z 30006KT 9999 FEW045 18/08 Q1024 NOSIG RMK BLU BLU
  • 201720Z 31006KT 9999 FEW045 19/08 Q1023 NOSIG RMK BLU BLU

TAF TAF EGUW
Valide du 20 à 18h jusqu'au 21 à 02h UTC


201630Z 2018/2102 26008KT 9999 FEW045
Pas de NOTAMs connus pour ce terrain.



MET'MAP, la Météo Aéronautique d'un coup d'oeil ! - Copyright ORBIFLY Décembre 2007 - Disclaimer

ORBIFLY MET'MAP TEAM :

Programmation & Développement : Alexandra Zaïnal
Conception & Développement : Baudouin d'Aumeries
Co-Programmation & Développement : Marc-Olivier Méhu
Soutien technique & logistique : Manuel Goepfert

Contact : metmap@orbifly.com




SOURCES & CREDITS :

   NOAA